Flight Track Log - Related Links

Times and Time Zones

All times are in EST time to prevent confusion due to time zone crossing. See the AVN11 flight status page for this flight to view local times or setup timezone preferences in your user account.

Time Position Orientation Groundspeed Altitude Reporting Facility
EST Latitude Longitude Course Direction KTS MPH feet Rate Location/Type
Sat 08:09:36 PM -33.9463 151.1760 84° East 100 115  Level FlightAware ADS-B (KCLL)
Sat 08:09:55 PM -33.9578 151.1789 168° South 160 184 923 Level FlightAware ADS-B (KCLL)
Sat 08:10:15 PM -33.9728 151.1818 171° South 164 189 600 1,946 Climbing FlightAware ADS-B (KCLL)
Sat 08:10:32 PM -33.9861 151.1805 185° South 172 198 1,200 1,459 Climbing FlightAware ADS-B
Sat 08:10:52 PM -34.0027 151.1785 186° South 183 211 1,500 1,050 Climbing FlightAware ADS-B (KCLL)
Sat 08:11:12 PM -34.0214 151.1767 185° South 207 238 1,900 1,500 Climbing FlightAware ADS-B
Sat 08:11:32 PM -34.0386 151.1788 174° South 223 257 2,500 2,053 Climbing FlightAware ADS-B
Sat 08:11:50 PM -34.0599 151.1855 165° South 229 264 3,200 2,595 Climbing FlightAware ADS-B
Sat 08:12:09 PM -34.0796 151.1925 164° South 231 266 4,100 2,400 Climbing FlightAware ADS-B
Sat 08:12:30 PM -34.1010 151.1999 164° South 243 280 4,800 1,692 Climbing FlightAware ADS-B
Sat 08:12:48 PM -34.1196 151.2150 146° Southeast 267 307 5,200 1,674 Climbing FlightAware ADS-B
Sat 08:13:13 PM -34.1402 151.2404 135° Southeast 278 320 6,000 2,400 Climbing FlightAware ADS-B
Sat 08:13:33 PM -34.1598 151.2641 135° Southeast 277 319 7,000 2,769 Climbing FlightAware ADS-B (KCLL)
Sat 08:13:52 PM -34.1723 151.2891 121° Southeast 284 327 7,800 2,348 Climbing FlightAware ADS-B
Sat 08:13:56 PM -34.1734 151.2955 102° East 277 319 7,900 2,100 Climbing FlightAware ADS-B
Sat 08:14:12 PM -34.1718 151.3198 86° East 299 344 8,500 2,211 Climbing FlightAware ADS-B
Sat 08:14:15 PM -34.1701 151.3253 70° East 301 346 8,600 2,286 Climbing FlightAware ADS-B
Sat 08:14:33 PM -34.1544 151.3498 52° Northeast 310 357 9,300 2,129 Climbing FlightAware ADS-B (KCLL)
Sat 08:14:46 PM -34.1411 151.3591 30° Northeast 315 362 9,700 1,674 Climbing FlightAware ADS-B
Sat 08:15:16 PM -34.0966 151.3814 22° Northeast 337 388 10,500 1,279 Climbing FlightAware ADS-B
Sat 08:15:47 PM -34.0507 151.4016 20° North 368 423 11,000 1,333 Climbing FlightAware ADS-B (YRAY)
Sat 08:16:19 PM -33.9942 151.4220 17° North 383 441 11,900 1,909 Climbing FlightAware ADS-B (YRAY)
Sat 08:16:53 PM -33.9365 151.4436 17° North 392 451 13,100 2,211 Climbing FlightAware ADS-B (KCLL)
Sat 08:17:35 PM -33.8636 151.4714 18° North 392 451 14,700 2,320 Climbing FlightAware ADS-B (KCLL)
Sat 08:18:08 PM -33.8047 151.4940 18° North 407 468 16,000 2,083 Climbing FlightAware ADS-B
Sat 08:18:47 PM -33.7362 151.5201 18° North 425 489 17,200 1,826 Climbing FlightAware ADS-B
Sat 08:19:17 PM -33.6749 151.5434 17° North 425 489 18,100 1,869 Climbing FlightAware ADS-B (KCLL)
Sat 08:19:48 PM -33.6194 151.5643 17° North 440 506 19,100 1,905 Climbing FlightAware ADS-B
Sat 08:20:20 PM -33.5527 151.5895 17° North 444 511 20,100 1,846 Climbing FlightAware ADS-B
Sat 08:20:53 PM -33.4874 151.6142 17° North 442 509 21,100 1,701 Climbing FlightAware ADS-B (KCLL)
Sat 08:21:27 PM -33.4201 151.6396 17° North 457 526 22,000 1,562 Climbing FlightAware ADS-B (KCLL)
Sat 08:22:06 PM -33.3401 151.6696 17° North 458 527 23,000 1,481 Climbing FlightAware ADS-B (KCLL)
Sat 08:22:44 PM -33.2616 151.6991 17° North 472 543 23,900 1,481 Climbing FlightAware ADS-B (KCLL)
Sat 08:23:23 PM -33.1796 151.7297 17° North 469 540 24,900 1,558 Climbing FlightAware ADS-B (KCLL)
Sat 08:24:01 PM -33.1004 151.7601 17° North 476 548 25,900 1,395 Climbing Aus ATC (RADAR)
Sat 08:24:06 PM -33.0888 151.7639 17° North 476 548 25,900 1,043 Level FlightAware ADS-B (KCLL)
Sat 08:24:47 PM -33.0011 151.7968 17° North 492 566 26,700 1,403 Climbing FlightAware ADS-B (KCLL)
Sat 08:25:23 PM -32.9222 151.8261 17° North 489 563 27,700 1,579 Climbing FlightAware ADS-B (KCLL)
Sat 08:26:03 PM -32.8345 151.8585 17° North 488 562 28,700 1,397 Climbing FlightAware ADS-B (KCLL)
Sat 08:26:36 PM -32.7655 151.8840 17° North 489 563 29,400 1,271 Climbing FlightAware ADS-B (KCLL)
Sat 08:27:28 PM -32.6529 151.9261 17° North 489 563 30,500 1,100 Climbing Aus ATC (RADAR)
Sat 08:27:36 PM -32.6338 151.9326 17° North 491 565 30,500 1,116 Level FlightAware ADS-B (KCLL)
Sat 08:28:11 PM -32.5576 151.9608 17° North 489 563 31,300 1,433 Climbing FlightAware ADS-B (KCLL)
Sat 08:28:43 PM -32.4905 151.9856 17° North 487 560 32,100 1,256 Climbing Aus ATC (RADAR)
Sat 08:28:54 PM -32.4662 151.9945 17° North 486 559 32,200 1,043 Climbing FlightAware ADS-B (KCLL)
Sat 08:29:29 PM -32.3913 152.0221 17° North 485 558 32,900 1,222 Climbing FlightAware ADS-B (KCLL)
Sat 08:29:48 PM -32.3489 152.0376 17° North 476 548 33,300 1,179 Climbing FlightAware ADS-B (KCLL)
Sat 08:30:25 PM -32.2691 152.0675 17° North 481 554 34,000 933 Climbing Aus ATC (RADAR)
Sat 08:30:33 PM -32.2531 152.0729 17° North 476 548 34,000 706 Level FlightAware ADS-B (KCLL)
Sat 08:32:07 PM -32.0514 152.1469 17° North 486 559 35,200 541 Climbing Aus ATC (RADAR)
Sat 08:32:35 PM -31.9900 152.1700 18° North 488 562 35,100 -95 Descending Aus ATC (RADAR)
Sat 08:33:10 PM -31.9141 152.1973 17° North 489 563 35,100  Level Aus ATC (RADAR)
Sat 08:33:52 PM -31.8239 152.2301 17° North 487 560 35,100  Level Aus ATC (RADAR)
Sat 08:34:27 PM -31.7479 152.2571 17° North 488 562 35,100  Level Aus ATC (RADAR)
Sat 08:35:02 PM -31.6722 152.2850 17° North 486 559 35,100  Level Aus ATC (RADAR)
Sat 08:35:35 PM -31.6002 152.3112 17° North 488 562 35,100  Level Aus ATC (RADAR)
Sat 08:36:07 PM -31.5318 152.3357 17° North 484 557 35,100  Level Aus ATC (RADAR)
Sat 08:37:10 PM -31.3953 152.3848 17° North 486 559 35,100  Level Aus ATC (RADAR)
Sat 08:37:45 PM -31.3205 152.4118 17° North 482 555 35,100  Level Aus ATC (RADAR)
Sat 08:38:17 PM -31.2517 152.4361 17° North 482 555 35,100  Level Aus ATC (RADAR)
Sat 08:38:57 PM -31.1657 152.4677 17° North 484 557 35,100  Level Aus ATC (RADAR)
Sat 08:39:30 PM -31.0943 152.4933 17° North 487 560 35,100  Level Aus ATC (RADAR)
Sat 08:40:04 PM -31.0185 152.5204 17° North 489 563 35,100  Level Aus ATC (RADAR)
Sat 08:40:37 PM -30.9493 152.5459 18° North 486 559 35,100  Level Aus ATC (RADAR)
Sat 08:41:12 PM -30.8858 152.6017 37° Northeast 482 555 35,100  Level Aus ATC (RADAR)
Sat 08:42:24 PM -30.7741 152.7442 48° Northeast 490 564 35,100  Level Aus ATC (RADAR)
Sat 08:42:52 PM -30.7323 152.7957 47° Northeast 476 548 35,100  Level Aus ATC (RADAR)
Sat 08:43:27 PM -30.6775 152.8631 47° Northeast 478 550 35,100  Level Aus ATC (RADAR)
Sat 08:44:09 PM -30.6109 152.9461 47° Northeast 492 566 35,100  Level Aus ATC (RADAR)
Sat 08:44:42 PM -30.5607 153.0068 46° Northeast 477 549 35,100  Level Aus ATC (RADAR)
Sat 08:45:16 PM -30.5063 153.0737 47° Northeast 476 548 35,100  Level Aus ATC (RADAR)
Sat 08:45:49 PM -30.4556 153.1368 47° Northeast 488 562 35,100  Level Aus ATC (RADAR)
Sat 08:46:24 PM -30.4010 153.2036 47° Northeast 490 564 35,100  Level Aus ATC (RADAR)
Sat 08:47:19 PM -30.3160 153.3088 47° Northeast 490 564 35,100  Level Aus ATC (RADAR)
Sat 08:47:44 PM -30.2773 153.3560 47° Northeast 488 562 35,100  Level Aus ATC (RADAR)
Sat 08:48:19 PM -30.2231 153.4223 47° Northeast 487 560 35,100  Level Aus ATC (RADAR)
Sat 08:48:59 PM -30.1613 153.4976 46° Northeast 485 558 35,100  Level Aus ATC (RADAR)
Sat 08:49:31 PM -30.1118 153.5574 46° Northeast 468 539 35,100  Level Aus ATC (RADAR)
Sat 08:50:06 PM -30.0585 153.6224 47° Northeast 463 533 35,100  Level Aus ATC (RADAR)
Sat 08:50:39 PM -30.0086 153.6835 47° Northeast 479 551 35,100  Level Aus ATC (RADAR)
Sat 08:51:13 PM -29.9555 153.7477 46° Northeast 477 549 35,100  Level Aus ATC (RADAR)
Sat 08:52:26 PM -29.8465 153.8782 46° Northeast 456 525 35,100  Level Aus ATC (RADAR)
Sat 08:52:43 PM -29.8195 153.9113 47° Northeast 472 543 35,100  Level Aus ATC (RADAR)
Sat 08:53:08 PM -29.7818 153.9566 46° Northeast 472 543 35,100  Level Aus ATC (RADAR)
Sat 08:53:43 PM -29.7291 154.0202 46° Northeast 471 542 35,100  Level Aus ATC (RADAR)
Sat 08:54:25 PM -29.6652 154.0949 45° Northeast 455 524 35,100  Level Aus ATC (RADAR)
Sat 08:55:01 PM -29.6131 154.1585 47° Northeast 453 521 35,100  Level Aus ATC (RADAR)
Sat 08:55:38 PM -29.5559 154.2278 46° Northeast 471 542 35,100  Level Aus ATC (RADAR)
Sat 08:56:10 PM -29.5073 154.2843 45° Northeast 455 524 35,100  Level Aus ATC (RADAR)
Sat 08:56:43 PM -29.4573 154.3453 47° Northeast 472 543 35,100  Level Aus ATC (RADAR)
Sat 08:57:48 PM -29.3583 154.4628 46° Northeast 474 545 35,100  Level Aus ATC (RADAR)
Sat 08:58:13 PM -29.3191 154.5086 46° Northeast 476 548 35,100  Level Aus ATC (RADAR)
Sat 08:58:50 PM -29.2633 154.5751 46° Northeast 459 528 35,100  Level Aus ATC (RADAR)
Sat 08:59:30 PM -29.2018 154.6480 46° Northeast 460 529 35,100  Level Aus ATC (RADAR)
Sat 09:00:05 PM -29.1474 154.7105 45° Northeast 460 529 35,100  Level Aus ATC (RADAR)
Sat 09:00:40 PM -29.0940 154.7737 46° Northeast 456 525 35,100  Level Aus ATC (RADAR)
Sat 09:01:15 PM -29.0423 154.8374 47° Northeast 451 519 35,100  Level Aus ATC (RADAR)
Sat 09:01:50 PM -28.9877 154.8989 45° Northeast 452 520 35,100  Level Aus ATC (RADAR)
Sat 09:03:00 PM -28.8812 155.0232 46° Northeast 453 521 35,100  Level Aus ATC (RADAR)
Sat 09:03:25 PM -28.8422 155.0679 45° Northeast 454 522 35,100  Level Aus ATC (RADAR)
Sat 09:04:00 PM -28.7898 155.1316 47° Northeast 454 522 35,100  Level Aus ATC (RADAR)
Sat 09:04:44 PM -28.7198 155.2120 45° Northeast 457 526 35,100  Level Aus ATC (RADAR)
Sat 09:05:20 PM -28.6653 155.2749 45° Northeast 458 527 35,100  Level Aus ATC (RADAR)
Sat 09:05:54 PM -28.6110 155.3371 45° Northeast 458 527 35,100 -81 Level Aus ATC (RADAR)
Sat 09:06:34 PM -28.5486 155.4088 45° Northeast 459 528 35,000  Descending Aus ATC (RADAR)
Sat 09:07:42 PM -28.4428 155.5332 46° Northeast 477 549 35,100 65 Climbing Aus ATC (RADAR)
Sat 09:08:07 PM -28.4043 155.5781 46° Northeast 476 548 35,100  Level Aus ATC (RADAR)
Sat 09:08:27 PM -28.3735 155.6139 46° Northeast 475 547 35,100 600 Level Aus ATC (RADAR)
Sat 09:09:07 PM -28.3106 155.6861 45° Northeast 480 552 35,700 750 Climbing Aus ATC (RADAR)
Sat 09:09:47 PM -28.2474 155.7583 45° Northeast 483 556 36,100 640 Climbing Aus ATC (RADAR)
Sat 09:10:22 PM -28.1919 155.8220 45° Northeast 485 558 36,500 771 Climbing Aus ATC (RADAR)
Sat 09:10:57 PM -28.1370 155.8852 45° Northeast 483 556 37,000 514 Climbing Aus ATC (RADAR)
Sat 09:11:32 PM -28.0818 155.9482 45° Northeast 482 555 37,100 92 Climbing Aus ATC (RADAR)
Sat 09:12:02 PM -28.0342 156.0022 45° Northeast 483 556 37,100  Level Aus ATC (RADAR)
Sat 09:13:07 PM -27.9311 156.1194 45° Northeast 483 556 37,100  Level Aus ATC (RADAR)
Sat 09:13:32 PM -27.8918 156.1640 45° Northeast 481 554 37,100  Level Aus ATC (RADAR)
Sat 09:14:06 PM -27.8365 156.2267 45° Northeast 481 554 37,100  Level Aus ATC (RADAR)
Sat 09:14:46 PM -27.7735 156.2980 45° Northeast 479 551 37,100  Level Aus ATC (RADAR)
Sat 09:15:21 PM -27.7189 156.3603 45° Northeast 478 550 37,100  Level Aus ATC (RADAR)
Sat 09:15:57 PM -27.6636 156.4225 45° Northeast 479 551 37,100  Level Aus ATC (RADAR)
Sat 09:16:31 PM -27.6090 156.4845 45° Northeast 476 548 37,100  Level Aus ATC (RADAR)
Sat 09:17:06 PM -27.5539 156.5465 45° Northeast 478 550 37,100  Level Aus ATC (RADAR)
Sat 09:18:06 PM -27.4590 156.6531 45° Northeast 479 551 37,100  Level Aus ATC (RADAR)
Sat 09:18:31 PM -27.4192 156.6977 45° Northeast 481 554 37,100  Level Aus ATC (RADAR)
Sat 09:19:11 PM -27.3559 156.7687 45° Northeast 480 552 37,100  Level Aus ATC (RADAR)
Sat 09:19:46 PM -27.3004 156.8311 45° Northeast 481 554 37,100 -86 Level Aus ATC (RADAR)
Sat 09:20:21 PM -27.2438 156.8930 44° Northeast 484 557 37,000 -86 Descending Aus ATC (RADAR)
Sat 09:20:56 PM -27.1890 156.9561 46° Northeast 482 555 37,000  Level Aus ATC (RADAR)
Sat 09:21:26 PM -27.1416 157.0097 45° Northeast 481 554 37,000  Level Aus ATC (RADAR)
Sat 09:22:01 PM -27.0856 157.0722 45° Northeast 482 555 37,000  Level Aus ATC (RADAR)
Sat 09:23:16 PM -26.9649 157.2060 45° Northeast 485 558 37,000  Level Aus ATC (RADAR)
Sat 09:23:41 PM -26.9240 157.2506 44° Northeast 486 559 37,000  Level Aus ATC (RADAR)
Sat 09:24:16 PM -26.8674 157.3130 45° Northeast 487 560 37,000  Level Aus ATC (RADAR)
Sat 09:25:01 PM -26.7942 157.3938 45° Northeast 489 563 37,000  Level Aus ATC (RADAR)
Sat 09:25:36 PM -26.7371 157.4571 45° Northeast 491 565 37,000  Level Aus ATC (RADAR)
Sat 09:26:11 PM -26.6791 157.5206 44° Northeast 496 571 37,000  Level Aus ATC (RADAR)
Sat 09:26:45 PM -26.6224 157.5846 45° Northeast 494 568 37,000  Level Aus ATC (RADAR)
Sat 09:27:20 PM -26.5635 157.6485 44° Northeast 499 574 37,000  Level Aus ATC (RADAR)
Sat 09:28:30 PM -26.4472 157.7776 45° Northeast 502 578 37,000  Level Aus ATC (RADAR)
Sat 09:28:50 PM -26.4132 157.8141 44° Northeast 504 580 37,000  Level Aus ATC (RADAR)
Sat 09:29:30 PM -26.3469 157.8881 45° Northeast 503 579 37,000  Level Aus ATC (RADAR)
Sat 09:30:10 PM -26.2774 157.9604 43° Northeast 504 580 37,000  Level Aus ATC (RADAR)
Sat 09:30:40 PM -26.2282 158.0144 45° Northeast 502 578 37,000  Level Aus ATC (RADAR)
Sat 09:33:05 PM -25.9675 158.2970 50° Northeast 37,000  Level Aus ATC (Calculated)
Sat 09:35:00 PM -25.8087 158.5096 50° Northeast  Level Estimated
Sat 09:36:00 PM -25.7257 158.6203 50° Northeast  Level Estimated
Sat 09:36:05 PM -25.6852 158.6008 50° Northeast 37,000  Level Aus ATC (Calculated)
Sat 09:38:00 PM -25.5266 158.8132 50° Northeast  Level Estimated
Sat 09:38:01 PM -25.4864 158.8136 50° Northeast 37,000  Level Aus ATC (Calculated)
Sat 09:40:00 PM -25.3225 159.0331 50° Northeast  Level Estimated
Sat 09:41:00 PM -25.2397 159.1436 50° Northeast  Level Estimated
Sat 09:42:00 PM -25.1569 159.2539 50° Northeast  Level Estimated
Sat 09:43:00 PM -25.0739 159.3640 50° Northeast  Level Estimated
Sat 09:44:00 PM -24.9909 159.4740 50° Northeast  Level Estimated
Sat 09:45:00 PM -24.9078 159.5839 50° Northeast  Level Estimated
Sat 09:46:00 PM -24.8246 159.6936 50° Northeast  Level Estimated
Sat 09:47:00 PM -24.7414 159.8031 50° Northeast  Level Estimated
Sat 09:48:00 PM -24.6580 159.9125 50° Northeast  Level Estimated
Sat 09:49:00 PM -24.5746 160.0218 50° Northeast  Level Estimated
Sat 09:50:00 PM -24.4911 160.1309 50° Northeast  Level Estimated
Sat 09:51:00 PM -24.4075 160.2399 50° Northeast  Level Estimated
Sat 09:52:00 PM -24.3239 160.3487 50° Northeast  Level Estimated
Sat 09:53:00 PM -24.2401 160.4574 50° Northeast  Level Estimated
Sat 09:53:20 PM -23.8963 160.4798 51° Northeast 37,000  Level Aus ATC (Calculated)
Sat 09:55:00 PM -23.7616 160.6630 51° Northeast  Level Estimated
Sat 09:56:00 PM -23.6807 160.7727 51° Northeast  Level Estimated
Sat 09:57:00 PM -23.5997 160.8823 51° Northeast  Level Estimated
Sat 09:58:00 PM -23.5186 160.9917 51° Northeast  Level Estimated
Sat 09:59:00 PM -23.4374 161.1010 51° Northeast  Level Estimated
Sat 10:00:00 PM -23.3562 161.2102 51° Northeast  Level Estimated
Sat 10:01:00 PM -23.2749 161.3192 51° Northeast  Level Estimated
Sat 10:01:00 PM -23.1145 161.2773 52° Northeast 37,000  Level Aus ATC (Calculated)
Sat 10:02:00 PM -23.0349 161.3876 52° Northeast  Level Estimated
Sat 10:03:00 PM -22.9552 161.4978 52° Northeast  Level Estimated
Sat 10:04:00 PM -22.8754 161.6078 52° Northeast  Level Estimated
Sat 10:04:00 PM -22.7908 161.6035 52° Northeast 37,000  Level Aus ATC (Calculated)
Sat 10:05:00 PM -22.7118 161.7141 52° Northeast  Level Estimated
Sat 10:06:00 PM -22.6328 161.8246 52° Northeast  Level Estimated
Sat 10:07:00 PM -22.5536 161.9349 52° Northeast  Level Estimated
Sat 10:08:00 PM -22.4744 162.0451 52° Northeast  Level Estimated
Sat 10:09:00 PM -22.3952 162.1552 52° Northeast  Level Estimated
Sat 10:10:00 PM -22.3158 162.2651 52° Northeast  Level Estimated
Sat 10:11:00 PM -22.2364 162.3750 52° Northeast  Level Estimated
Sat 10:12:00 PM -22.1569 162.4847 52° Northeast  Level Estimated
Sat 10:13:00 PM -22.0773 162.5943 52° Northeast  Level Estimated
Sat 10:14:00 PM -21.9977 162.7037 52° Northeast  Level Estimated
Sat 10:14:00 PM -21.7784 162.6100 54° Northeast 37,000  Level Aus ATC (Calculated)
Sat 10:15:00 PM -21.7021 162.7220 54° Northeast  Level Estimated
Sat 10:16:00 PM -21.6258 162.8339 54° Northeast  Level Estimated
Sat 10:17:00 PM -21.5495 162.9457 54° Northeast  Level Estimated
Sat 10:18:00 PM -21.4730 163.0574 54° Northeast  Level Estimated
Sat 10:19:00 PM -21.3965 163.1689 54° Northeast  Level Estimated
Sat 10:20:00 PM -21.3199 163.2803 54° Northeast  Level Estimated
Sat 10:21:00 PM -21.2432 163.3917 54° Northeast  Level Estimated
Sat 10:22:00 PM -21.1665 163.5029 54° Northeast  Level Estimated
Sat 10:23:00 PM -21.0897 163.6139 53° Northeast  Level Estimated
Sat 10:24:00 PM -21.0128 163.7249 53° Northeast  Level Estimated
Sat 10:25:00 PM -20.9358 163.8358 53° Northeast  Level Estimated
Sat 10:26:00 PM -20.8588 163.9465 53° Northeast  Level Estimated
Sat 10:27:00 PM -20.7817 164.0571 53° Northeast  Level Estimated
Sat 10:28:00 PM -20.7045 164.1676 53° Northeast  Level Estimated
Sat 10:29:00 PM -20.6273 164.2780 53° Northeast  Level Estimated
Sat 10:30:00 PM -20.5500 164.3883 53° Northeast  Level Estimated
Sat 10:31:00 PM -20.4726 164.4985 53° Northeast  Level Estimated
Sat 10:32:00 PM -20.3951 164.6086 53° Northeast  Level Estimated
Sat 10:33:00 PM -20.3176 164.7185 53° Northeast  Level Estimated
Sat 10:34:00 PM -20.2400 164.8284 53° Northeast  Level Estimated
Sat 10:35:00 PM -20.1624 164.9381 53° Northeast  Level Estimated
Sat 10:36:00 PM -20.0847 165.0477 53° Northeast  Level Estimated
Sat 10:37:00 PM -20.0069 165.1573 53° Northeast  Level Estimated
Sat 10:38:00 PM -19.9290 165.2667 53° Northeast  Level Estimated
Sat 10:39:00 PM -19.8511 165.3760 53° Northeast  Level Estimated
Sat 10:40:00 PM -19.7731 165.4852 53° Northeast  Level Estimated
Sat 10:41:00 PM -19.6950 165.5943 53° Northeast  Level Estimated
Sat 10:42:00 PM -19.6169 165.7032 53° Northeast  Level Estimated
Sat 10:43:00 PM -19.5387 165.8121 53° Northeast  Level Estimated
Sat 10:44:00 PM -19.4605 165.9209 53° Northeast  Level Estimated
Sat 10:45:00 PM -19.3821 166.0295 53° Northeast  Level Estimated
Sat 10:46:00 PM -19.3038 166.1381 53° Northeast  Level Estimated
Sat 10:47:00 PM -19.2253 166.2466 53° Northeast  Level Estimated
Sat 10:48:00 PM -19.1468 166.3549 53° Northeast  Level Estimated
Sat 10:49:00 PM -19.0682 166.4632 52° Northeast  Level Estimated
Sat 10:50:00 PM -18.9896 166.5713 52° Northeast  Level Estimated
Sat 10:51:00 PM -18.9109 166.6793 52° Northeast  Level Estimated
Sat 10:52:00 PM -18.8321 166.7873 52° Northeast  Level Estimated
Sat 10:53:00 PM -18.7533 166.8951 52° Northeast  Level Estimated
Sat 10:54:00 PM -18.6744 167.0029 52° Northeast  Level Estimated
Sat 10:55:00 PM -18.5954 167.1105 52° Northeast  Level Estimated
Sat 10:56:00 PM -18.5164 167.2180 52° Northeast  Level Estimated
Sat 10:57:00 PM -18.4374 167.3255 52° Northeast  Level Estimated
Sat 10:58:00 PM -18.3582 167.4328 52° Northeast  Level Estimated
Sat 10:59:00 PM -18.2791 167.5401 52° Northeast  Level Estimated
Sat 11:00:00 PM -18.1998 167.6472 52° Northeast  Level Estimated
Sat 11:01:00 PM -18.1205 167.7543 52° Northeast  Level Estimated
Sat 11:02:00 PM -18.0411 167.8612 52° Northeast  Level Estimated
Sat 11:03:00 PM -17.9617 167.9681 52° Northeast  Level Estimated
Sat 11:04:00 PM -17.8822 168.0748 52° Northeast  Level Estimated
Sat 11:05:00 PM -17.8027 168.1815 52° Northeast  Level Estimated
Sat 11:06:00 PM -17.7231 168.2881 52° Northeast  Level Estimated
Sat 11:07:00 PM -17.6993 168.3198 52° Northeast  Level Estimated
Sat 11:08:00 PM -17.6993 168.3198 143° Southeast  Level Estimated
Sat 11:09:00 PM -17.6993 168.3198 37° Northeast  Level Estimated
Sat 11:10:00 PM -17.6993 168.3198 143° Southeast  Level Estimated
Sat 11:11:00 PM -17.6993 168.3198 37° Northeast  Level Estimated
Sat 11:12:00 PM -17.6993 168.3198 143° Southeast  Level Estimated
Sat 11:13:00 PM -17.6993 168.3198 37° Northeast  Level Estimated
Sat 11:14:00 PM -17.6993 168.3198 143° Southeast  Level Estimated
Sat 11:15:00 PM -17.6993 168.3198 37° Northeast  Level Estimated
Sat 11:16:00 PM -17.6993 168.3198 143° Southeast  Level Estimated
Sat 11:17:00 PM -17.6993 168.3198 37° Northeast  Level Estimated
Sat 11:18:00 PM -17.6993 168.3198 143° Southeast  Level Estimated
Sat 11:19:00 PM -17.6993 168.3198 37° Northeast  Level Estimated
Sat 11:20:00 PM -17.6993 168.3198 143° Southeast  Level Estimated
Sat 11:21:00 PM -17.6993 168.3198 37° Northeast  Level Estimated
Sat 11:22:00 PM -17.6993 168.3198 143° Southeast  Level Estimated
Sat 11:23:00 PM -17.6993 168.3198 37° Northeast  Level Estimated
Sat 11:24:00 PM -17.6993 168.3198 143° Southeast  Level Estimated

Login

Don't have an account? Register now (free) for customized features, flight alerts, and more!